Time;durP1;ratioP1;P1;durP2;ratioP2;P2;SDS_P1;SDS_P2;PMS_P1;PMS_P2;Temp;Humidity;BMP_temperature;BMP_pressure;BME280_temperature;BME280_humidity;BME280_pressure;Samples;Min_cycle;Max_cycle;Signal;HPM_P1;HPM_P2
2023/07/05 00:00:15;;;;;;;2.05;1.95;;;;;;;;;;4124714;28;20241;-90
2023/07/05 00:02:35;;;;;;;3.20;3.00;;;;;;;;;;4124364;28;20343;-89
2023/07/05 00:04:56;;;;;;;1.73;1.63;;;;;;;;;;4120867;28;20046;-90
2023/07/05 00:07:16;;;;;;;2.83;1.92;;;;;;;;;;4128380;28;20051;-89
2023/07/05 00:10:08;;;;;;;2.85;2.65;;;;;;;;;;4203777;28;20051;-90
2023/07/05 00:12:28;;;;;;;3.17;2.83;;;;;;;;;;4143425;28;20049;-89
2023/07/05 00:14:48;;;;;;;3.85;2.70;;;;;;;;;;4141382;28;20046;-90
2023/07/05 00:17:09;;;;;;;3.03;2.60;;;;;;;;;;4153058;28;20057;-88
2023/07/05 00:19:30;;;;;;;2.95;2.85;;;;;;;;;;4147355;28;20116;-90
2023/07/05 00:21:50;;;;;;;2.70;1.92;;;;;;;;;;4153986;28;20507;-89
2023/07/05 00:24:10;;;;;;;1.92;1.83;;;;;;;;;;4156352;28;20080;-89
2023/07/05 00:26:31;;;;;;;2.22;2.13;;;;;;;;;;4150594;28;20400;-89
2023/07/05 00:29:30;;;;;;;2.53;1.95;;;;;;;;;;4145711;28;20053;-89
2023/07/05 00:31:50;;;;;;;1.90;1.80;;;;;;;;;;4107897;28;20114;-89
2023/07/05 00:34:12;;;;;;;2.97;2.55;;;;;;;;;;4095397;29;20066;-89
2023/07/05 00:36:32;;;;;;;2.83;2.58;;;;;;;;;;4108521;29;20144;-89
2023/07/05 00:38:53;;;;;;;3.08;2.70;;;;;;;;;;4122466;28;20444;-90
2023/07/05 00:41:13;;;;;;;2.47;2.25;;;;;;;;;;4096181;29;20046;-89
2023/07/05 00:43:48;;;;;;;2.17;2.08;;;;;;;;;;4090557;28;20370;-89
2023/07/05 00:46:15;;;;;;;2.60;2.33;;;;;;;;;;4116728;28;20123;-90
2023/07/05 00:48:43;;;;;;;1.92;1.83;;;;;;;;;;4121300;28;20145;-84
2023/07/05 00:51:12;;;;;;;3.15;2.97;;;;;;;;;;4126807;28;20066;-84
2023/07/05 00:53:35;;;;;;;4.20;2.78;;;;;;;;;;4140281;28;20045;-84
2023/07/05 00:56:01;;;;;;;2.42;2.22;;;;;;;;;;4140425;28;20073;-84
2023/07/05 00:58:23;;;;;;;3.05;2.53;;;;;;;;;;4119759;28;20110;-84
2023/07/05 01:00:44;;;;;;;4.73;2.63;;;;;;;;;;4140192;28;20037;-84
2023/07/05 01:03:07;;;;;;;2.38;2.17;;;;;;;;;;4197676;22;20068;-58
2023/07/05 01:05:27;;;;;;;;;;;;;;;;;;4170842;28;20366;-59
2023/07/05 01:07:48;;;;;;;3.83;1.58;;;;;;;;;;4167642;28;19932;-58
2023/07/05 01:10:26;;;;;;;2.50;2.30;;;;;;;;;;4166556;28;20149;-58
2023/07/05 01:12:50;;;;;;;2.15;2.05;;;;;;;;;;4166754;28;20065;-58
2023/07/05 01:15:16;;;;;;;2.47;2.38;;;;;;;;;;4167550;28;20084;-59
2023/07/05 01:17:41;;;;;;;3.53;2.40;;;;;;;;;;4169021;28;20049;-59
2023/07/05 01:20:21;;;;;;;2.50;2.30;;;;;;;;;;4172176;28;20080;-58
2023/07/05 01:22:50;;;;;;;1.80;1.50;;;;;;;;;;4168115;28;20048;-59
2023/07/05 01:25:20;;;;;;;2.47;2.38;;;;;;;;;;4167039;28;20323;-58
2023/07/05 01:27:40;;;;;;;2.97;2.78;;;;;;;;;;4164626;28;20052;-59
2023/07/05 01:30:16;;;;;;;2.58;2.38;;;;;;;;;;4167619;28;20386;-58
2023/07/05 01:32:51;;;;;;;2.38;2.22;;;;;;;;;;4170773;28;20084;-58
2023/07/05 01:35:21;;;;;;;2.45;2.35;;;;;;;;;;4166366;28;20333;-59
2023/07/05 01:37:43;;;;;;;2.55;2.45;;;;;;;;;;4170074;28;20117;-59
2023/07/05 01:40:12;;;;;;;2.97;2.53;;;;;;;;;;4162104;28;20049;-58
2023/07/05 01:42:33;;;;;;;3.58;3.30;;;;;;;;;;4164730;28;20387;-58
2023/07/05 01:44:53;;;;;;;2.75;2.60;;;;;;;;;;4166762;28;20076;-58
2023/07/05 01:47:20;;;;;;;2.95;2.83;;;;;;;;;;4169342;28;20109;-58
2023/07/05 01:49:49;;;;;;;3.38;2.97;;;;;;;;;;4170909;28;20096;-58
2023/07/05 01:52:21;;;;;;;2.95;2.72;;;;;;;;;;4167784;28;20060;-59
2023/07/05 01:55:01;;;;;;;3.13;3.03;;;;;;;;;;4160506;28;20044;-58
2023/07/05 01:57:26;;;;;;;3.92;2.75;;;;;;;;;;4163124;28;20048;-58
2023/07/05 01:59:48;;;;;;;2.65;2.55;;;;;;;;;;4165920;28;20172;-59
2023/07/05 02:02:10;;;;;;;3.17;2.97;;;;;;;;;;4167852;28;20076;-59
2023/07/05 02:04:35;;;;;;;3.25;3.15;;;;;;;;;;4160442;28;20084;-58
2023/07/05 02:06:55;;;;;;;2.90;2.80;;;;;;;;;;4171260;28;20145;-58
2023/07/05 02:09:15;;;;;;;3.08;2.95;;;;;;;;;;4169659;28;20052;-58
2023/07/05 02:11:37;;;;;;;3.10;2.50;;;;;;;;;;4166410;28;20040;-59
2023/07/05 02:13:57;;;;;;;2.83;2.63;;;;;;;;;;4163881;28;20056;-58
2023/07/05 02:16:17;;;;;;;3.30;3.10;;;;;;;;;;4161335;28;20053;-58
2023/07/05 02:18:38;;;;;;;5.25;3.00;;;;;;;;;;4166211;28;20048;-58
2023/07/05 02:20:58;;;;;;;2.92;2.83;;;;;;;;;;4167038;28;20418;-59
2023/07/05 02:23:19;;;;;;;9.38;2.97;;;;;;;;;;4167582;28;20061;-59
2023/07/05 02:25:41;;;;;;;3.22;2.90;;;;;;;;;;4168118;28;20052;-59
2023/07/05 02:28:05;;;;;;;3.60;3.40;;;;;;;;;;4165651;28;20053;-58
2023/07/05 02:30:26;;;;;;;3.30;3.05;;;;;;;;;;4163217;28;20240;-58
2023/07/05 02:32:47;;;;;;;2.50;2.40;;;;;;;;;;4165382;28;20083;-59
2023/07/05 02:35:08;;;;;;;3.97;3.75;;;;;;;;;;4165726;28;20084;-58
2023/07/05 02:37:31;;;;;;;4.10;3.70;;;;;;;;;;4168164;28;20052;-59
2023/07/05 02:39:54;;;;;;;2.97;2.83;;;;;;;;;;4166666;28;20064;-58
2023/07/05 02:42:15;;;;;;;3.83;2.92;;;;;;;;;;4167601;28;20049;-58
2023/07/05 02:44:35;;;;;;;5.22;3.40;;;;;;;;;;4168949;28;20048;-58
2023/07/05 02:46:55;;;;;;;5.55;3.08;;;;;;;;;;4167784;28;20068;-58
2023/07/05 02:49:15;;;;;;;3.00;2.88;;;;;;;;;;4170309;28;20040;-59
2023/07/05 02:51:35;;;;;;;3.83;3.58;;;;;;;;;;4169850;28;20108;-59
2023/07/05 02:53:56;;;;;;;3.20;3.03;;;;;;;;;;4174297;28;20056;-58
2023/07/05 02:56:16;;;;;;;4.30;3.08;;;;;;;;;;4172112;28;20409;-59
2023/07/05 02:58:36;;;;;;;4.18;3.08;;;;;;;;;;4168061;28;20049;-58
2023/07/05 03:00:56;;;;;;;4.68;2.90;;;;;;;;;;4166915;28;20057;-59
2023/07/05 03:03:16;;;;;;;2.55;2.45;;;;;;;;;;4168062;28;20051;-58
2023/07/05 03:05:36;;;;;;;3.45;3.15;;;;;;;;;;4171085;28;20275;-58
2023/07/05 03:07:57;;;;;;;2.88;2.70;;;;;;;;;;4170720;28;20091;-59
2023/07/05 03:10:17;;;;;;;3.38;3.17;;;;;;;;;;4161574;28;20101;-59
2023/07/05 03:12:37;;;;;;;2.58;2.38;;;;;;;;;;4161657;28;20056;-59
2023/07/05 03:14:58;;;;;;;2.72;2.53;;;;;;;;;;4163894;28;20052;-59
2023/07/05 03:17:18;;;;;;;3.53;3.30;;;;;;;;;;4166507;28;20276;-59
2023/07/05 03:19:39;;;;;;;5.15;3.30;;;;;;;;;;4168817;28;20045;-58
2023/07/05 03:21:59;;;;;;;2.85;2.65;;;;;;;;;;4171501;28;20044;-59
2023/07/05 03:24:20;;;;;;;3.05;2.85;;;;;;;;;;4173896;28;20047;-58
2023/07/05 03:26:40;;;;;;;3.30;3.08;;;;;;;;;;4162833;28;20298;-59
2023/07/05 03:29:02;;;;;;;2.67;2.58;;;;;;;;;;4174172;28;20060;-58
2023/07/05 03:31:22;;;;;;;3.70;3.50;;;;;;;;;;4166614;28;20052;-59
2023/07/05 03:33:43;;;;;;;3.35;3.13;;;;;;;;;;4165603;28;20068;-59
2023/07/05 03:36:06;;;;;;;3.25;2.95;;;;;;;;;;4164590;28;20048;-59
2023/07/05 03:38:27;;;;;;;2.42;2.28;;;;;;;;;;4163732;28;20271;-58
2023/07/05 03:40:55;;;;;;;3.40;2.90;;;;;;;;;;4170246;28;20076;-59
2023/07/05 03:43:16;;;;;;;5.85;2.70;;;;;;;;;;4168886;28;20106;-59
2023/07/05 03:45:36;;;;;;;3.60;3.40;;;;;;;;;;4168401;28;20072;-59
2023/07/05 03:47:56;;;;;;;2.83;2.60;;;;;;;;;;4167078;28;20056;-60
2023/07/05 03:50:16;;;;;;;3.70;3.40;;;;;;;;;;4163555;28;20276;-59
2023/07/05 03:52:36;;;;;;;5.03;3.90;;;;;;;;;;4167833;28;20089;-59
2023/07/05 03:54:58;;;;;;;3.03;2.83;;;;;;;;;;4169372;28;20052;-59
2023/07/05 03:57:18;;;;;;;3.42;3.33;;;;;;;;;;4172123;28;20060;-58
2023/07/05 03:59:39;;;;;;;2.72;2.42;;;;;;;;;;4170870;28;20268;-58
2023/07/05 04:01:59;;;;;;;2.97;2.78;;;;;;;;;;4166934;28;20052;-58
2023/07/05 04:04:20;;;;;;;3.25;3.05;;;;;;;;;;4165747;28;20243;-59
2023/07/05 04:06:40;;;;;;;2.97;2.85;;;;;;;;;;4168360;28;20084;-59
2023/07/05 04:09:01;;;;;;;3.47;3.38;;;;;;;;;;4168936;28;20350;-59
2023/07/05 04:11:22;;;;;;;4.47;4.18;;;;;;;;;;4156575;28;20045;-58
2023/07/05 04:13:44;;;;;;;3.42;3.22;;;;;;;;;;4164468;28;20383;-59
2023/07/05 04:16:08;;;;;;;3.00;2.80;;;;;;;;;;4170033;28;20117;-59
2023/07/05 04:18:30;;;;;;;3.03;2.83;;;;;;;;;;4165615;28;20510;-59
2023/07/05 04:20:50;;;;;;;3.80;3.70;;;;;;;;;;4166289;28;20048;-59
2023/07/05 04:23:10;;;;;;;3.70;3.60;;;;;;;;;;4168552;28;20117;-59
2023/07/05 04:25:30;;;;;;;3.28;3.17;;;;;;;;;;4171080;28;20049;-59
2023/07/05 04:27:50;;;;;;;4.30;4.05;;;;;;;;;;4173332;28;20044;-60
2023/07/05 04:30:11;;;;;;;3.33;3.22;;;;;;;;;;4171410;28;20394;-61
2023/07/05 04:32:31;;;;;;;4.25;2.88;;;;;;;;;;4164166;28;20267;-61
2023/07/05 04:34:51;;;;;;;3.42;3.13;;;;;;;;;;4166054;28;20049;-63
2023/07/05 04:37:12;;;;;;;3.20;3.00;;;;;;;;;;4167253;28;20049;-63
2023/07/05 04:39:37;;;;;;;3.53;3.20;;;;;;;;;;4169302;28;20053;-63
2023/07/05 04:41:57;;;;;;;3.95;3.65;;;;;;;;;;4171846;28;20044;-63
2023/07/05 04:44:17;;;;;;;5.10;3.30;;;;;;;;;;4169780;28;20124;-63
2023/07/05 04:46:37;;;;;;;4.07;3.88;;;;;;;;;;4164193;28;20441;-61
2023/07/05 04:48:57;;;;;;;4.10;3.80;;;;;;;;;;4162765;28;20401;-60
2023/07/05 04:51:17;;;;;;;4.35;3.38;;;;;;;;;;4163805;28;20064;-60
2023/07/05 04:53:37;;;;;;;3.80;3.60;;;;;;;;;;4172282;28;20057;-61
2023/07/05 04:55:59;;;;;;;3.80;3.70;;;;;;;;;;4160590;28;20049;-60
2023/07/05 04:58:22;;;;;;;4.38;3.97;;;;;;;;;;4166624;28;20056;-60
2023/07/05 05:00:49;;;;;;;3.58;3.20;;;;;;;;;;4166562;28;20061;-61
2023/07/05 05:03:09;;;;;;;3.38;2.50;;;;;;;;;;4168716;28;20052;-61
2023/07/05 05:05:30;;;;;;;3.50;3.40;;;;;;;;;;4170421;28;20091;-60
2023/07/05 05:07:50;;;;;;;3.90;3.60;;;;;;;;;;4154320;28;20049;-61
2023/07/05 05:10:11;;;;;;;3.72;3.45;;;;;;;;;;4161986;28;20117;-60
2023/07/05 05:12:31;;;;;;;4.03;3.75;;;;;;;;;;4170591;28;20083;-60
2023/07/05 05:14:52;;;;;;;3.15;2.95;;;;;;;;;;4169142;28;20069;-60
2023/07/05 05:17:12;;;;;;;3.70;3.50;;;;;;;;;;4167429;28;20079;-60
2023/07/05 05:19:33;;;;;;;4.25;4.15;;;;;;;;;;4167913;28;20107;-60
2023/07/05 05:21:53;;;;;;;6.13;3.15;;;;;;;;;;4166274;28;20390;-60
2023/07/05 05:24:14;;;;;;;4.05;3.70;;;;;;;;;;4164192;28;20091;-61
2023/07/05 05:26:34;;;;;;;2.95;2.75;;;;;;;;;;4166884;28;20057;-59
2023/07/05 05:28:54;;;;;;;3.53;3.28;;;;;;;;;;4170012;28;20359;-59
2023/07/05 05:31:14;;;;;;;2.88;2.78;;;;;;;;;;4171331;28;20048;-59
2023/07/05 05:33:35;;;;;;;2.85;2.65;;;;;;;;;;4170022;28;20045;-59
2023/07/05 05:35:55;;;;;;;4.30;4.15;;;;;;;;;;4163668;28;20057;-59
2023/07/05 05:38:19;;;;;;;4.25;3.95;;;;;;;;;;4164936;28;20048;-58
2023/07/05 05:40:40;;;;;;;3.53;3.33;;;;;;;;;;4166186;28;20297;-58
2023/07/05 05:43:00;;;;;;;6.03;3.38;;;;;;;;;;4167356;28;20056;-59
2023/07/05 05:45:20;;;;;;;4.00;3.47;;;;;;;;;;4168500;28;20387;-58
2023/07/05 05:47:40;;;;;;;3.25;3.00;;;;;;;;;;4161389;28;20091;-58
2023/07/05 05:50:01;;;;;;;3.28;3.17;;;;;;;;;;4160868;28;20083;-59
2023/07/05 05:52:22;;;;;;;4.88;2.90;;;;;;;;;;4162073;28;20463;-58
2023/07/05 05:54:42;;;;;;;3.60;3.45;;;;;;;;;;4166781;28;20240;-59
2023/07/05 05:57:03;;;;;;;4.65;3.55;;;;;;;;;;4166541;28;20412;-58
2023/07/05 05:59:23;;;;;;;5.65;4.10;;;;;;;;;;4169543;28;20125;-58
2023/07/05 06:01:44;;;;;;;3.13;2.83;;;;;;;;;;4171743;28;20065;-58
2023/07/05 06:04:07;;;;;;;3.10;2.97;;;;;;;;;;4167332;28;20077;-59
2023/07/05 06:06:27;;;;;;;3.28;3.05;;;;;;;;;;4163216;28;20049;-59
2023/07/05 06:08:48;;;;;;;3.88;2.55;;;;;;;;;;4164145;28;20096;-59
2023/07/05 06:11:09;;;;;;;4.13;3.60;;;;;;;;;;4164977;28;20102;-59
2023/07/05 06:13:29;;;;;;;2.90;2.80;;;;;;;;;;4166705;28;20108;-59
2023/07/05 06:15:54;;;;;;;3.90;3.30;;;;;;;;;;4158656;28;20088;-59
2023/07/05 06:18:33;;;;;;;3.33;3.08;;;;;;;;;;4166083;28;20044;-59
2023/07/05 06:20:53;;;;;;;3.22;3.03;;;;;;;;;;4169622;28;20276;-60
2023/07/05 06:23:14;;;;;;;4.65;3.65;;;;;;;;;;4170518;28;20099;-59
2023/07/05 06:25:35;;;;;;;3.28;3.08;;;;;;;;;;4164404;28;20068;-59
2023/07/05 06:27:55;;;;;;;5.18;2.92;;;;;;;;;;4162011;28;20096;-59
2023/07/05 06:30:16;;;;;;;4.28;3.03;;;;;;;;;;4169091;28;20125;-60
2023/07/05 06:32:36;;;;;;;4.65;2.70;;;;;;;;;;4168163;28;20096;-60
2023/07/05 06:34:57;;;;;;;4.03;3.30;;;;;;;;;;4171424;28;20091;-59
2023/07/05 06:37:17;;;;;;;4.72;3.28;;;;;;;;;;4167095;28;20049;-59
2023/07/05 06:39:38;;;;;;;2.67;2.55;;;;;;;;;;4166017;28;20065;-60
2023/07/05 06:41:59;;;;;;;3.45;3.22;;;;;;;;;;4163439;28;20060;-60
2023/07/05 06:44:19;;;;;;;4.57;2.90;;;;;;;;;;4166228;28;20093;-59
2023/07/05 06:46:39;;;;;;;4.00;3.60;;;;;;;;;;4166303;28;20379;-59
2023/07/05 06:48:59;;;;;;;8.10;3.13;;;;;;;;;;4167868;28;20412;-60
2023/07/05 06:51:20;;;;;;;2.60;2.40;;;;;;;;;;4170298;28;20092;-60
2023/07/05 06:53:40;;;;;;;2.05;1.95;;;;;;;;;;4163966;28;20442;-59
2023/07/05 06:56:10;;;;;;;2.53;2.33;;;;;;;;;;4165114;28;20099;-59
2023/07/05 06:58:30;;;;;;;5.00;2.35;;;;;;;;;;4163803;28;20045;-60
2023/07/05 07:00:51;;;;;;;2.55;2.40;;;;;;;;;;4165356;28;20076;-59
2023/07/05 07:03:11;;;;;;;2.40;1.75;;;;;;;;;;4167364;28;20240;-59
2023/07/05 07:05:32;;;;;;;2.08;1.90;;;;;;;;;;4167458;28;20072;-60
2023/07/05 07:07:52;;;;;;;2.25;1.67;;;;;;;;;;4161228;28;20401;-58
2023/07/05 07:10:12;;;;;;;2.85;2.28;;;;;;;;;;4165654;28;20088;-60
2023/07/05 07:12:34;;;;;;;1.83;1.70;;;;;;;;;;4162650;28;20052;-59
2023/07/05 07:14:54;;;;;;;1.83;1.65;;;;;;;;;;4166227;28;20094;-59
2023/07/05 07:17:14;;;;;;;4.03;2.22;;;;;;;;;;4166113;28;20391;-59
2023/07/05 07:19:35;;;;;;;1.77;1.67;;;;;;;;;;4170162;28;20292;-59
2023/07/05 07:21:55;;;;;;;2.92;1.77;;;;;;;;;;4170986;28;20113;-59
2023/07/05 07:24:16;;;;;;;4.50;1.73;;;;;;;;;;4163762;28;20131;-59
2023/07/05 07:26:37;;;;;;;3.22;1.65;;;;;;;;;;4165626;28;20406;-59
2023/07/05 07:28:57;;;;;;;3.60;1.55;;;;;;;;;;4166553;28;20076;-59
2023/07/05 07:31:19;;;;;;;4.03;2.03;;;;;;;;;;4168464;28;20087;-60
2023/07/05 07:33:40;;;;;;;1.30;1.20;;;;;;;;;;4170662;28;20240;-59
2023/07/05 07:36:07;;;;;;;2.20;1.88;;;;;;;;;;4173300;28;20056;-59
2023/07/05 07:38:28;;;;;;;1.58;1.48;;;;;;;;;;4162386;28;20086;-60
2023/07/05 07:40:48;;;;;;;2.75;1.67;;;;;;;;;;4170349;28;20096;-59
2023/07/05 07:43:09;;;;;;;1.95;1.48;;;;;;;;;;4166231;28;20087;-59
2023/07/05 07:45:29;;;;;;;2.20;2.10;;;;;;;;;;4165039;28;20096;-60
2023/07/05 07:47:49;;;;;;;6.47;2.08;;;;;;;;;;4172250;28;20048;-59
2023/07/05 07:50:13;;;;;;;1.85;1.67;;;;;;;;;;4162620;28;20060;-59
2023/07/05 07:52:33;;;;;;;2.28;1.48;;;;;;;;;;4169359;28;20052;-59
2023/07/05 07:54:56;;;;;;;4.07;1.95;;;;;;;;;;4171803;28;20243;-59
2023/07/05 07:57:16;;;;;;;3.38;2.13;;;;;;;;;;4169377;28;20048;-60
2023/07/05 07:59:41;;;;;;;4.03;2.17;;;;;;;;;;4169606;28;20064;-60
2023/07/05 08:02:01;;;;;;;4.93;1.30;;;;;;;;;;4168839;28;20084;-59
2023/07/05 08:04:21;;;;;;;5.10;1.45;;;;;;;;;;4166578;28;20057;-59
2023/07/05 08:06:44;;;;;;;2.15;1.77;;;;;;;;;;4168248;28;20072;-60
2023/07/05 08:09:09;;;;;;;2.50;1.58;;;;;;;;;;4168681;28;20248;-60
2023/07/05 08:11:29;;;;;;;1.70;1.60;;;;;;;;;;4170756;28;20083;-59
2023/07/05 08:13:50;;;;;;;1.50;1.40;;;;;;;;;;4166305;28;20152;-59
2023/07/05 08:16:10;;;;;;;5.07;1.70;;;;;;;;;;4166969;28;20076;-60
2023/07/05 08:18:30;;;;;;;3.03;1.33;;;;;;;;;;4167797;28;20060;-60
2023/07/05 08:20:51;;;;;;;1.55;1.45;;;;;;;;;;4168887;28;20116;-59
2023/07/05 08:23:11;;;;;;;2.20;1.50;;;;;;;;;;4170491;28;20371;-60
2023/07/05 08:25:34;;;;;;;4.88;2.47;;;;;;;;;;4172614;28;20044;-59
2023/07/05 08:27:54;;;;;;;1.80;1.05;;;;;;;;;;4170009;28;20092;-59
2023/07/05 08:30:15;;;;;;;2.05;1.45;;;;;;;;;;4166304;28;20045;-59
2023/07/05 08:32:35;;;;;;;1.88;1.38;;;23.80;99.90;;;;;;4168098;28;20048;-60
2023/07/05 08:34:57;;;;;;;1.63;1.40;;;26.00;99.90;;;;;;4168344;28;20060;-60
2023/07/05 08:37:17;;;;;;;3.20;1.10;;;26.00;99.90;;;;;;4170797;28;20088;-60
2023/07/05 08:39:37;;;;;;;3.13;1.55;;;26.30;99.90;;;;;;4172531;28;20295;-60
2023/07/05 08:42:23;;;;;;;1.30;1.20;;;26.20;99.90;;;;;;4171246;28;20287;-60
2023/07/05 08:44:49;;;;;;;3.67;1.13;;;26.00;99.90;;;;;;4161753;28;20044;-59
2023/07/05 08:47:10;;;;;;;1.20;1.05;;;25.30;99.90;;;;;;4164514;28;20099;-59
2023/07/05 08:49:39;;;;;;;1.38;1.23;;;25.70;99.90;;;;;;4166957;28;20088;-59
2023/07/05 08:52:00;;;;;;;2.00;1.33;;;25.60;99.90;;;;;;4169492;28;20076;-60
2023/07/05 08:54:20;;;;;;;2.23;1.03;;;25.40;99.90;;;;;;4171990;28;20371;-59
2023/07/05 08:56:45;;;;;;;2.38;1.20;;;25.70;99.90;;;;;;4169149;28;20390;-60
2023/07/05 08:59:26;;;;;;;1.83;1.05;;;;;;;;;;4160786;28;20076;-60
2023/07/05 09:01:55;;;;;;;1.67;0.95;;;;;;;;;;4163974;28;20100;-60
2023/07/05 09:04:26;;;;;;;3.97;1.48;;;;;;;;;;4163981;28;20049;-60
2023/07/05 09:06:50;;;;;;;1.10;1.00;;;;;;;;;;4161432;28;20237;-59
2023/07/05 09:09:13;;;;;;;2.33;1.27;;;;;;;;;;4158974;28;20052;-60
2023/07/05 09:11:34;;;;;;;1.10;1.10;;;;;;;;;;4169446;28;20405;-59
2023/07/05 09:14:03;;;;;;;2.15;1.45;;;;;;;;;;4170928;28;20060;-60
2023/07/05 09:16:46;;;;;;;4.90;1.42;;;;;;;;;;4167771;28;20103;-59
2023/07/05 09:19:23;;;;;;;1.45;1.00;;;;;;;;;;4169562;28;20057;-60
2023/07/05 09:21:49;;;;;;;1.23;1.13;;;;;;;;;;4162199;28;20048;-59
2023/07/05 09:24:09;;;;;;;2.55;0.90;;;;;;;;;;4166955;28;20044;-60
2023/07/05 09:26:36;;;;;;;1.00;1.00;;;;;;;;;;4168686;28;20056;-59
2023/07/05 09:29:11;;;;;;;1.45;0.80;;;;;;;;;;4170459;28;20762;-59
2023/07/05 09:31:31;;;;;;;0.98;0.98;;;;;;;;;;4167152;28;20232;-60
2023/07/05 09:34:12;;;;;;;2.72;1.50;;;;;;;;;;4166379;28;20045;-60
2023/07/05 09:36:32;;;;;;;3.60;1.63;;;;;;;;;;4164949;28;20048;-59
2023/07/05 09:38:56;;;;;;;1.42;1.00;;;;;;;;;;4166960;28;20049;-59
2023/07/05 09:41:28;;;;;;;1.00;0.90;;;;;;;;;;4170316;28;20136;-59
2023/07/05 09:43:48;;;;;;;3.72;1.17;;;;;;;;;;4168775;28;20091;-60
2023/07/05 09:46:27;;;;;;;2.20;0.90;;;;;;;;;;4169586;28;20048;-59
2023/07/05 09:48:49;;;;;;;1.75;0.90;;;;;;;;;;4162842;28;20053;-60
2023/07/05 09:51:10;;;;;;;2.65;1.23;;;;;;;;;;4164240;28;20053;-60
2023/07/05 09:53:41;;;;;;;1.27;0.90;;;;;;;;;;4166494;28;20091;-60
2023/07/05 09:56:05;;;;;;;8.05;1.60;;;;;;;;;;4169614;28;20048;-59
2023/07/05 09:58:26;;;;;;;1.02;0.90;;;;;;;;;;4172308;28;20044;-60
2023/07/05 10:00:47;;;;;;;2.20;1.00;;;;;;;;;;4170067;28;20083;-60
2023/07/05 10:03:11;;;;;;;6.47;1.00;;;;;;;;;;4164704;28;20060;-60
2023/07/05 10:05:32;;;;;;;4.60;1.27;;;;;;;;;;4164709;28;20080;-60
2023/07/05 10:07:57;;;;;;;1.15;1.08;;;;;;;;;;4165536;28;20072;-59
2023/07/05 10:10:18;;;;;;;5.47;0.90;;;;;;;;;;4168180;28;20232;-59
2023/07/05 10:12:40;;;;;;;1.10;1.00;;;;;;;;;;4170515;28;20045;-60
2023/07/05 10:15:00;;;;;;;1.05;0.98;;;;;;;;;;4171371;28;20056;-60
2023/07/05 10:17:21;;;;;;;0.90;0.90;;;;;;;;;;4159006;28;20088;-59
2023/07/05 10:19:49;;;;;;;1.23;0.90;;;;;;;;;;4163295;28;20096;-60
2023/07/05 10:22:33;;;;;;;1.88;1.30;;;;;;;;;;4164920;28;20045;-59
2023/07/05 10:24:58;;;;;;;1.10;0.90;;;;;;;;;;4165331;28;20045;-60
2023/07/05 10:27:28;;;;;;;1.02;0.98;;;;;;;;;;4160929;28;20237;-60
2023/07/05 10:29:49;;;;;;;7.13;1.38;;;;;;;;;;4168744;28;20049;-60
2023/07/05 10:32:18;;;;;;;1.02;1.00;;;;;;;;;;4170877;28;20048;-60
2023/07/05 10:34:45;;;;;;;2.38;1.00;;;;;;;;;;4170542;28;20060;-60
2023/07/05 10:37:06;;;;;;;0.95;0.95;;;;;;;;;;4170338;28;20049;-61
2023/07/05 10:39:26;;;;;;;1.45;0.80;;;;;;;;;;4162427;28;20379;-60
2023/07/05 10:41:48;;;;;;;3.75;0.80;;;;;;;;;;4167374;28;20080;-59
2023/07/05 10:44:16;;;;;;;1.00;0.90;;;;;;;;;;4165519;28;20139;-60
2023/07/05 10:46:38;;;;;;;1.02;0.93;;;;;;;;;;4166760;28;20056;-60
2023/07/05 10:48:59;;;;;;;1.57;0.90;;;;;;;;;;4168874;28;20052;-60
2023/07/05 10:51:21;;;;;;;1.13;0.90;;;;;;;;;;4167076;28;20108;-59
2023/07/05 10:53:41;;;;;;;1.20;0.80;;;;;;;;;;4163774;28;20052;-60
2023/07/05 10:56:04;;;;;;;0.80;0.70;;;;;;;;;;4162571;28;20127;-60
2023/07/05 10:58:28;;;;;;;0.77;0.77;;;;;;;;;;4167470;28;20049;-59
2023/07/05 11:00:52;;;;;;;2.05;0.75;;;;;;;;;;4170576;28;20267;-60
2023/07/05 11:03:23;;;;;;;1.00;0.70;;;;;;;;;;4171335;28;20083;-60
2023/07/05 11:05:48;;;;;;;2.75;0.80;;;;;;;;;;4170046;28;20092;-59
2023/07/05 11:08:29;;;;;;;0.93;0.70;;;;;;;;;;4167498;28;20051;-59
2023/07/05 11:10:56;;;;;;;2.10;1.15;;;;;;;;;;4164628;28;20052;-60
2023/07/05 11:13:18;;;;;;;0.98;0.80;;;;;;;;;;4154303;28;20233;-59
2023/07/05 11:15:38;;;;;;;2.80;0.80;;;;;;;;;;4170079;28;20052;-60
2023/07/05 11:17:59;;;;;;;2.92;0.80;;;;;;;;;;4169036;28;20048;-59
2023/07/05 11:20:39;;;;;;;1.98;0.85;;;;;;;;;;4170674;28;20045;-60
2023/07/05 11:23:00;;;;;;;1.83;0.98;;;;;;;;;;4170540;28;20086;-59
2023/07/05 11:25:40;;;;;;;0.70;0.70;;;;;;;;;;4168319;28;20378;-60
2023/07/05 11:28:00;;;;;;;0.80;0.80;;;;;;;;;;4168527;28;20043;-60
2023/07/05 11:30:40;;;;;;;0.70;0.70;;;;;;;;;;4169109;28;20086;-60
2023/07/05 11:33:03;;;;;;;1.17;0.70;;;;;;;;;;4166488;28;20052;-59
2023/07/05 11:35:42;;;;;;;1.27;0.82;;;;;;;;;;4167804;28;20053;-59
2023/07/05 11:38:02;;;;;;;0.70;0.70;;;;;;;;;;4169996;28;20052;-60
2023/07/05 11:40:41;;;;;;;1.25;0.60;;;;;;;;;;4167967;28;20103;-59
2023/07/05 11:43:22;;;;;;;0.60;0.50;;;;;;;;;;4167086;28;20057;-60
2023/07/05 11:45:46;;;;;;;1.20;0.60;;;;;;;;;;4167196;28;20142;-60
2023/07/05 11:48:26;;;;;;;0.77;0.60;;;;;;;;;;4166225;28;20049;-59
2023/07/05 11:50:46;;;;;;;3.08;0.60;;;;;;;;;;4168263;28;20298;-59
2023/07/05 11:53:13;;;;;;;0.60;0.60;;;;;;;;;;4168463;28;20096;-60
2023/07/05 11:55:35;;;;;;;0.90;0.70;;;;;;;;;;4155499;28;20060;-59
2023/07/05 11:57:58;;;;;;;0.75;0.60;;;;;;;;;;4156433;28;20061;-59
2023/07/05 12:00:23;;;;;;;0.60;0.60;;;;;;;;;;4156100;28;20292;-60
2023/07/05 12:02:53;;;;;;;1.48;0.70;;;;;;;;;;4169961;28;20109;-60
2023/07/05 12:05:18;;;;;;;0.95;0.80;;;;;;;;;;4172856;28;20232;-59
2023/07/05 12:07:39;;;;;;;2.88;0.70;;;;;;;;;;4171446;28;20040;-59
2023/07/05 12:10:00;;;;;;;3.05;0.55;;;;;;;;;;4169395;28;20084;-60
2023/07/05 12:12:21;;;;;;;1.05;0.80;;;;;;;;;;4167544;28;20367;-60
2023/07/05 12:14:43;;;;;;;0.60;0.60;;;;;;;;;;4168127;28;20053;-60
2023/07/05 12:17:09;;;;;;;0.88;0.55;;;;;;;;;;4169222;28;20056;-60
2023/07/05 12:19:31;;;;;;;0.95;0.90;;;;;;;;;;4168533;28;20084;-60
2023/07/05 12:21:58;;;;;;;0.60;0.60;;;;;;;;;;4165518;28;20048;-60
2023/07/05 12:24:18;;;;;;;0.70;0.70;;;;;;;;;;4166568;28;20079;-60
2023/07/05 12:26:39;;;;;;;0.70;0.70;;;;;;;;;;4168365;28;20118;-61
2023/07/05 12:29:03;;;;;;;0.60;0.60;;;;;;;;;;4168120;28;20335;-59
2023/07/05 12:31:25;;;;;;;1.13;0.60;;;;;;;;;;4168567;28;20049;-59
2023/07/05 12:33:51;;;;;;;1.38;0.63;;;;;;;;;;4168596;28;20367;-59
2023/07/05 12:36:16;;;;;;;1.67;0.60;;;;;;;;;;4167803;28;20270;-59
2023/07/05 12:38:37;;;;;;;0.98;0.98;;;;;;;;;;4167268;28;20057;-59
2023/07/05 12:40:58;;;;;;;1.00;0.63;;;;;;;;;;4166271;28;20045;-60
2023/07/05 12:43:28;;;;;;;2.47;0.60;;;;;;;;;;4169856;28;20264;-59
2023/07/05 12:45:48;;;;;;;0.80;0.60;;;;;;;;;;4168366;28;20104;-60
2023/07/05 12:48:25;;;;;;;0.85;0.63;;;;;;;;;;4168254;28;20056;-59
2023/07/05 12:50:46;;;;;;;0.75;0.60;;;;;;;;;;4167344;28;20244;-59
2023/07/05 12:53:07;;;;;;;0.63;0.60;;;;;;;;;;4167147;28;20252;-59
2023/07/05 12:55:28;;;;;;;1.70;0.60;;;;;;;;;;4165378;28;20056;-60
2023/07/05 12:57:52;;;;;;;1.05;0.55;;;;;;;;;;4165700;28;20048;-60
2023/07/05 13:00:14;;;;;;;1.50;0.60;;;;;;;;;;4168134;28;20099;-59
2023/07/05 13:02:35;;;;;;;0.82;0.60;;;;;;;;;;4169758;28;20048;-59
2023/07/05 13:04:59;;;;;;;2.38;0.70;;;;;;;;;;4167145;28;20391;-59
2023/07/05 13:07:22;;;;;;;0.82;0.63;;;;;;;;;;4166535;28;20049;-59
2023/07/05 13:09:43;;;;;;;1.73;0.90;;;;;;;;;;4162838;28;20092;-59
2023/07/05 13:12:05;;;;;;;0.60;0.60;;;;;;;;;;4165725;28;20072;-60
2023/07/05 13:14:29;;;;;;;0.95;0.50;;;;;;;;;;4168632;28;20053;-59
2023/07/05 13:16:57;;;;;;;1.05;0.70;;;;;;;;;;4167522;28;20079;-59
2023/07/05 13:19:18;;;;;;;1.40;0.60;;;;;;;;;;4169879;28;20049;-60
2023/07/05 13:21:40;;;;;;;1.15;0.50;;;;;;;;;;4170689;28;20052;-59
2023/07/05 13:24:00;;;;;;;;;;;;;;;;;;4165128;28;20045;-60
2023/07/05 13:26:31;;;;;;;0.68;0.60;;;;;;;;;;4160356;28;19924;-59
2023/07/05 13:28:53;;;;;;;1.30;0.60;;;;;;;;;;4164743;28;20043;-60
2023/07/05 13:31:18;;;;;;;1.85;0.70;;;;;;;;;;4166272;28;20109;-60
2023/07/05 13:33:39;;;;;;;1.48;1.15;;;;;;;;;;4168137;28;20083;-59
2023/07/05 13:35:59;;;;;;;0.70;0.70;;;;;;;;;;4166994;28;20064;-60
2023/07/05 13:38:20;;;;;;;0.60;0.60;;;;;;;;;;4168801;28;20387;-60
2023/07/05 13:40:49;;;;;;;0.60;0.60;;;;;;;;;;4166936;28;20061;-59
2023/07/05 13:43:10;;;;;;;1.10;0.70;;;;;;;;;;4166128;28;20248;-59
2023/07/05 13:45:32;;;;;;;6.78;0.65;;;;;;;;;;4165269;28;20039;-59
2023/07/05 13:47:53;;;;;;;2.33;0.60;;;;;;;;;;4164108;28;20383;-60
2023/07/05 13:50:14;;;;;;;1.42;0.60;;;;;;;;;;4168842;28;20045;-60
2023/07/05 13:52:34;;;;;;;0.60;0.60;;;;;;;;;;4169810;28;20080;-60
2023/07/05 13:54:54;;;;;;;3.42;0.60;;;;;;;;;;4169247;28;20106;-59
2023/07/05 13:57:19;;;;;;;1.95;0.55;;;;;;;;;;4166271;28;20048;-59
2023/07/05 13:59:40;;;;;;;1.65;0.50;;;;;;;;;;4165831;28;20407;-60
2023/07/05 14:02:00;;;;;;;0.50;0.50;;;;;;;;;;4164713;28;20269;-59
2023/07/05 14:04:20;;;;;;;0.50;0.50;;;;;;;;;;4165144;28;20052;-60
2023/07/05 14:06:40;;;;;;;0.68;0.60;;;;;;;;;;4166200;28;20044;-60
2023/07/05 14:09:01;;;;;;;3.00;0.68;;;;;;;;;;4168122;28;20104;-60
2023/07/05 14:11:29;;;;;;;1.85;0.80;;;;;;;;;;4166782;28;20405;-59
2023/07/05 14:13:50;;;;;;;0.65;0.65;;;;;;;;;;4165279;28;20045;-60
2023/07/05 14:16:12;;;;;;;0.60;0.60;;;;;;;;;;4160077;28;20048;-60